sensor_id;sensor_type;location;lat;lon;timestamp;P1;durP1;ratioP1;P2;durP2;ratioP2
66870;SDS011;53780;44.998;9.926;2022-12-18T00:02:03;53.75;;;23.35;;
66870;SDS011;53780;44.998;9.926;2022-12-18T00:05:07;54.17;;;23.77;;
66870;SDS011;53780;44.998;9.926;2022-12-18T00:08:11;55.40;;;23.77;;
66870;SDS011;53780;44.998;9.926;2022-12-18T00:11:15;53.17;;;23.38;;
66870;SDS011;53780;44.998;9.926;2022-12-18T00:14:21;51.25;;;23.42;;
66870;SDS011;53780;44.998;9.926;2022-12-18T00:17:25;54.25;;;22.58;;
66870;SDS011;53780;44.998;9.926;2022-12-18T00:20:29;51.50;;;22.13;;
66870;SDS011;53780;44.998;9.926;2022-12-18T00:23:34;48.10;;;21.73;;
66870;SDS011;53780;44.998;9.926;2022-12-18T00:26:39;55.00;;;23.38;;
66870;SDS011;53780;44.998;9.926;2022-12-18T00:29:43;50.28;;;21.45;;
66870;SDS011;53780;44.998;9.926;2022-12-18T00:32:47;56.55;;;22.63;;
66870;SDS011;53780;44.998;9.926;2022-12-18T00:35:50;52.28;;;21.73;;
66870;SDS011;53780;44.998;9.926;2022-12-18T00:38:55;54.27;;;21.93;;
66870;SDS011;53780;44.998;9.926;2022-12-18T00:42:00;57.40;;;22.98;;
66870;SDS011;53780;44.998;9.926;2022-12-18T00:45:28;53.08;;;22.83;;
66870;SDS011;53780;44.998;9.926;2022-12-18T00:48:34;51.10;;;21.80;;
66870;SDS011;53780;44.998;9.926;2022-12-18T00:51:38;45.85;;;21.15;;
66870;SDS011;53780;44.998;9.926;2022-12-18T00:54:42;44.13;;;20.07;;
66870;SDS011;53780;44.998;9.926;2022-12-18T00:57:45;43.53;;;19.17;;
66870;SDS011;53780;44.998;9.926;2022-12-18T01:00:49;48.40;;;19.98;;
66870;SDS011;53780;44.998;9.926;2022-12-18T01:03:53;46.30;;;18.95;;
66870;SDS011;53780;44.998;9.926;2022-12-18T01:06:57;43.58;;;19.48;;
66870;SDS011;53780;44.998;9.926;2022-12-18T01:10:01;45.33;;;19.03;;
66870;SDS011;53780;44.998;9.926;2022-12-18T01:13:05;43.67;;;18.52;;
66870;SDS011;53780;44.998;9.926;2022-12-18T01:16:10;41.88;;;18.33;;
66870;SDS011;53780;44.998;9.926;2022-12-18T01:19:15;46.88;;;19.40;;
66870;SDS011;53780;44.998;9.926;2022-12-18T01:22:19;48.25;;;20.67;;
66870;SDS011;53780;44.998;9.926;2022-12-18T01:25:23;51.63;;;20.17;;
66870;SDS011;53780;44.998;9.926;2022-12-18T01:28:27;52.35;;;21.02;;
66870;SDS011;53780;44.998;9.926;2022-12-18T01:31:33;51.25;;;20.80;;
66870;SDS011;53780;44.998;9.926;2022-12-18T01:34:39;57.20;;;22.65;;
66870;SDS011;53780;44.998;9.926;2022-12-18T01:37:42;71.95;;;24.70;;
66870;SDS011;53780;44.998;9.926;2022-12-18T01:40:46;69.40;;;25.57;;
66870;SDS011;53780;44.998;9.926;2022-12-18T01:46:58;65.32;;;24.63;;
66870;SDS011;53780;44.998;9.926;2022-12-18T01:50:07;68.18;;;25.55;;
66870;SDS011;53780;44.998;9.926;2022-12-18T01:53:19;68.57;;;25.27;;
66870;SDS011;53780;44.998;9.926;2022-12-18T01:56:25;62.47;;;23.10;;
66870;SDS011;53780;44.998;9.926;2022-12-18T01:59:29;68.40;;;24.52;;
66870;SDS011;53780;44.998;9.926;2022-12-18T02:02:36;58.83;;;24.38;;
66870;SDS011;53780;44.998;9.926;2022-12-18T02:05:49;63.00;;;22.58;;
66870;SDS011;53780;44.998;9.926;2022-12-18T02:09:16;55.92;;;21.63;;
66870;SDS011;53780;44.998;9.926;2022-12-18T02:19:26;56.65;;;22.85;;
66870;SDS011;53780;44.998;9.926;2022-12-18T02:29:48;56.40;;;21.80;;
66870;SDS011;53780;44.998;9.926;2022-12-18T02:32:54;58.30;;;23.10;;
66870;SDS011;53780;44.998;9.926;2022-12-18T02:36:01;56.55;;;22.35;;
66870;SDS011;53780;44.998;9.926;2022-12-18T02:39:08;56.97;;;22.25;;
66870;SDS011;53780;44.998;9.926;2022-12-18T02:42:19;53.53;;;21.92;;
66870;SDS011;53780;44.998;9.926;2022-12-18T02:45:24;54.50;;;21.50;;
66870;SDS011;53780;44.998;9.926;2022-12-18T02:48:31;50.58;;;20.35;;
66870;SDS011;53780;44.998;9.926;2022-12-18T02:51:44;46.33;;;20.30;;
66870;SDS011;53780;44.998;9.926;2022-12-18T02:55:00;47.65;;;20.27;;
66870;SDS011;53780;44.998;9.926;2022-12-18T03:05:24;43.22;;;17.90;;
66870;SDS011;53780;44.998;9.926;2022-12-18T03:08:39;47.08;;;19.63;;
66870;SDS011;53780;44.998;9.926;2022-12-18T03:11:48;49.47;;;18.27;;
66870;SDS011;53780;44.998;9.926;2022-12-18T03:15:19;48.28;;;19.50;;
66870;SDS011;53780;44.998;9.926;2022-12-18T03:21:40;43.70;;;18.88;;
66870;SDS011;53780;44.998;9.926;2022-12-18T03:24:47;44.03;;;18.02;;
66870;SDS011;53780;44.998;9.926;2022-12-18T03:27:53;41.72;;;17.52;;
66870;SDS011;53780;44.998;9.926;2022-12-18T03:31:00;43.13;;;17.85;;
66870;SDS011;53780;44.998;9.926;2022-12-18T03:34:12;41.27;;;17.67;;
66870;SDS011;53780;44.998;9.926;2022-12-18T03:37:22;46.65;;;19.17;;
66870;SDS011;53780;44.998;9.926;2022-12-18T03:40:28;46.70;;;19.65;;
66870;SDS011;53780;44.998;9.926;2022-12-18T03:43:42;46.95;;;18.63;;
66870;SDS011;53780;44.998;9.926;2022-12-18T03:50:22;48.90;;;19.63;;
66870;SDS011;53780;44.998;9.926;2022-12-18T03:53:57;46.10;;;20.13;;
66870;SDS011;53780;44.998;9.926;2022-12-18T03:57:15;50.65;;;19.95;;
66870;SDS011;53780;44.998;9.926;2022-12-18T04:00:25;47.25;;;19.38;;
66870;SDS011;53780;44.998;9.926;2022-12-18T04:03:40;49.70;;;20.38;;
66870;SDS011;53780;44.998;9.926;2022-12-18T04:06:46;52.10;;;21.03;;
66870;SDS011;53780;44.998;9.926;2022-12-18T04:09:52;55.33;;;21.88;;
66870;SDS011;53780;44.998;9.926;2022-12-18T04:13:00;54.15;;;21.67;;
66870;SDS011;53780;44.998;9.926;2022-12-18T04:16:05;53.17;;;20.27;;
66870;SDS011;53780;44.998;9.926;2022-12-18T04:19:09;61.67;;;23.63;;
66870;SDS011;53780;44.998;9.926;2022-12-18T04:22:17;61.80;;;22.90;;
66870;SDS011;53780;44.998;9.926;2022-12-18T04:25:24;59.97;;;22.40;;
66870;SDS011;53780;44.998;9.926;2022-12-18T04:28:41;57.65;;;21.77;;
66870;SDS011;53780;44.998;9.926;2022-12-18T04:31:46;60.72;;;20.30;;
66870;SDS011;53780;44.998;9.926;2022-12-18T04:34:50;57.10;;;19.05;;
66870;SDS011;53780;44.998;9.926;2022-12-18T04:37:54;52.87;;;19.13;;
66870;SDS011;53780;44.998;9.926;2022-12-18T04:40:57;55.28;;;18.48;;
66870;SDS011;53780;44.998;9.926;2022-12-18T04:44:04;52.78;;;19.50;;
66870;SDS011;53780;44.998;9.926;2022-12-18T04:47:08;52.42;;;18.95;;
66870;SDS011;53780;44.998;9.926;2022-12-18T04:50:12;51.33;;;19.27;;
66870;SDS011;53780;44.998;9.926;2022-12-18T04:53:15;52.37;;;19.23;;
66870;SDS011;53780;44.998;9.926;2022-12-18T04:56:19;52.67;;;18.77;;
66870;SDS011;53780;44.998;9.926;2022-12-18T04:59:23;50.63;;;18.45;;
66870;SDS011;53780;44.998;9.926;2022-12-18T05:02:27;50.35;;;19.15;;
66870;SDS011;53780;44.998;9.926;2022-12-18T05:05:31;52.30;;;18.90;;
66870;SDS011;53780;44.998;9.926;2022-12-18T05:08:35;54.43;;;19.30;;
66870;SDS011;53780;44.998;9.926;2022-12-18T05:11:38;51.40;;;18.23;;
66870;SDS011;53780;44.998;9.926;2022-12-18T05:14:42;56.08;;;19.08;;
66870;SDS011;53780;44.998;9.926;2022-12-18T05:17:46;53.38;;;19.00;;
66870;SDS011;53780;44.998;9.926;2022-12-18T05:20:50;54.50;;;19.15;;
66870;SDS011;53780;44.998;9.926;2022-12-18T05:23:55;52.03;;;18.70;;
66870;SDS011;53780;44.998;9.926;2022-12-18T05:26:58;51.28;;;18.58;;
66870;SDS011;53780;44.998;9.926;2022-12-18T05:30:02;54.97;;;19.58;;
66870;SDS011;53780;44.998;9.926;2022-12-18T05:33:07;54.35;;;18.25;;
66870;SDS011;53780;44.998;9.926;2022-12-18T05:36:11;53.63;;;18.75;;
66870;SDS011;53780;44.998;9.926;2022-12-18T05:39:15;59.77;;;18.90;;
66870;SDS011;53780;44.998;9.926;2022-12-18T05:42:19;58.25;;;18.45;;
66870;SDS011;53780;44.998;9.926;2022-12-18T05:45:22;69.18;;;20.30;;
66870;SDS011;53780;44.998;9.926;2022-12-18T05:48:26;62.20;;;19.00;;
66870;SDS011;53780;44.998;9.926;2022-12-18T05:51:30;56.55;;;17.88;;
66870;SDS011;53780;44.998;9.926;2022-12-18T05:54:35;59.97;;;17.97;;
66870;SDS011;53780;44.998;9.926;2022-12-18T05:57:38;60.20;;;17.65;;
66870;SDS011;53780;44.998;9.926;2022-12-18T06:00:43;57.17;;;17.85;;
66870;SDS011;53780;44.998;9.926;2022-12-18T06:03:48;56.03;;;17.75;;
66870;SDS011;53780;44.998;9.926;2022-12-18T06:06:52;60.70;;;18.85;;
66870;SDS011;53780;44.998;9.926;2022-12-18T06:09:56;54.77;;;17.23;;
66870;SDS011;53780;44.998;9.926;2022-12-18T06:13:00;53.92;;;16.95;;
66870;SDS011;53780;44.998;9.926;2022-12-18T06:16:05;50.92;;;16.63;;
66870;SDS011;53780;44.998;9.926;2022-12-18T06:19:15;48.97;;;16.35;;
66870;SDS011;53780;44.998;9.926;2022-12-18T06:22:19;48.35;;;16.67;;
66870;SDS011;53780;44.998;9.926;2022-12-18T06:25:23;52.33;;;16.23;;
66870;SDS011;53780;44.998;9.926;2022-12-18T06:28:27;44.30;;;15.52;;
66870;SDS011;53780;44.998;9.926;2022-12-18T06:31:31;48.40;;;15.65;;
66870;SDS011;53780;44.998;9.926;2022-12-18T06:34:36;41.95;;;14.90;;
66870;SDS011;53780;44.998;9.926;2022-12-18T06:37:41;41.08;;;14.60;;
66870;SDS011;53780;44.998;9.926;2022-12-18T06:40:45;39.47;;;14.63;;
66870;SDS011;53780;44.998;9.926;2022-12-18T06:43:49;46.42;;;15.20;;
66870;SDS011;53780;44.998;9.926;2022-12-18T06:46:52;45.15;;;15.25;;
66870;SDS011;53780;44.998;9.926;2022-12-18T06:49:56;44.92;;;15.25;;
66870;SDS011;53780;44.998;9.926;2022-12-18T06:53:00;44.55;;;15.63;;
66870;SDS011;53780;44.998;9.926;2022-12-18T06:56:05;41.93;;;14.67;;
66870;SDS011;53780;44.998;9.926;2022-12-18T06:59:10;40.33;;;14.23;;
66870;SDS011;53780;44.998;9.926;2022-12-18T07:02:14;41.80;;;14.68;;
66870;SDS011;53780;44.998;9.926;2022-12-18T07:05:17;48.08;;;15.73;;
66870;SDS011;53780;44.998;9.926;2022-12-18T07:08:21;44.03;;;15.35;;
66870;SDS011;53780;44.998;9.926;2022-12-18T07:11:25;47.77;;;15.63;;
66870;SDS011;53780;44.998;9.926;2022-12-18T07:14:28;46.42;;;15.95;;
66870;SDS011;53780;44.998;9.926;2022-12-18T07:17:32;48.50;;;15.82;;
66870;SDS011;53780;44.998;9.926;2022-12-18T07:20:36;48.75;;;15.57;;
66870;SDS011;53780;44.998;9.926;2022-12-18T07:23:40;47.85;;;16.38;;
66870;SDS011;53780;44.998;9.926;2022-12-18T07:26:47;47.13;;;16.37;;
66870;SDS011;53780;44.998;9.926;2022-12-18T07:29:52;45.88;;;15.90;;
66870;SDS011;53780;44.998;9.926;2022-12-18T07:32:55;45.78;;;17.10;;
66870;SDS011;53780;44.998;9.926;2022-12-18T07:36:02;45.30;;;16.48;;
66870;SDS011;53780;44.998;9.926;2022-12-18T07:39:07;45.75;;;15.32;;
66870;SDS011;53780;44.998;9.926;2022-12-18T07:42:11;49.70;;;16.47;;
66870;SDS011;53780;44.998;9.926;2022-12-18T07:45:33;44.60;;;15.73;;
66870;SDS011;53780;44.998;9.926;2022-12-18T07:48:37;45.63;;;15.88;;
66870;SDS011;53780;44.998;9.926;2022-12-18T07:51:41;41.95;;;16.15;;
66870;SDS011;53780;44.998;9.926;2022-12-18T07:54:45;46.80;;;17.40;;
66870;SDS011;53780;44.998;9.926;2022-12-18T07:57:48;47.53;;;16.53;;
66870;SDS011;53780;44.998;9.926;2022-12-18T08:00:52;42.10;;;16.17;;
66870;SDS011;53780;44.998;9.926;2022-12-18T08:03:56;46.08;;;16.65;;
66870;SDS011;53780;44.998;9.926;2022-12-18T08:07:00;73.40;;;23.27;;
66870;SDS011;53780;44.998;9.926;2022-12-18T08:10:04;68.03;;;24.80;;
66870;SDS011;53780;44.998;9.926;2022-12-18T08:13:09;45.80;;;17.37;;
66870;SDS011;53780;44.998;9.926;2022-12-18T08:16:13;45.15;;;17.02;;
66870;SDS011;53780;44.998;9.926;2022-12-18T08:19:17;43.25;;;16.50;;
66870;SDS011;53780;44.998;9.926;2022-12-18T08:22:20;38.03;;;15.40;;
66870;SDS011;53780;44.998;9.926;2022-12-18T08:25:25;39.60;;;15.45;;
66870;SDS011;53780;44.998;9.926;2022-12-18T08:28:29;42.77;;;16.73;;
66870;SDS011;53780;44.998;9.926;2022-12-18T08:31:33;42.15;;;16.85;;
66870;SDS011;53780;44.998;9.926;2022-12-18T08:34:37;35.65;;;16.05;;
66870;SDS011;53780;44.998;9.926;2022-12-18T08:37:41;49.03;;;20.33;;
66870;SDS011;53780;44.998;9.926;2022-12-18T08:40:45;39.88;;;17.88;;
66870;SDS011;53780;44.998;9.926;2022-12-18T08:43:49;36.97;;;15.63;;
66870;SDS011;53780;44.998;9.926;2022-12-18T08:47:11;35.05;;;15.05;;
66870;SDS011;53780;44.998;9.926;2022-12-18T08:50:15;39.28;;;15.00;;
66870;SDS011;53780;44.998;9.926;2022-12-18T08:53:19;41.78;;;18.20;;
66870;SDS011;53780;44.998;9.926;2022-12-18T08:56:22;61.70;;;27.67;;
66870;SDS011;53780;44.998;9.926;2022-12-18T08:59:26;45.60;;;20.03;;
66870;SDS011;53780;44.998;9.926;2022-12-18T09:02:32;51.05;;;22.75;;
66870;SDS011;53780;44.998;9.926;2022-12-18T09:05:36;42.60;;;18.80;;
66870;SDS011;53780;44.998;9.926;2022-12-18T09:08:40;40.03;;;16.05;;
66870;SDS011;53780;44.998;9.926;2022-12-18T09:11:43;43.90;;;19.23;;
66870;SDS011;53780;44.998;9.926;2022-12-18T09:14:47;40.23;;;15.60;;
66870;SDS011;53780;44.998;9.926;2022-12-18T09:17:51;37.28;;;15.35;;
66870;SDS011;53780;44.998;9.926;2022-12-18T09:20:56;41.50;;;16.92;;
66870;SDS011;53780;44.998;9.926;2022-12-18T09:23:59;38.60;;;16.35;;
66870;SDS011;53780;44.998;9.926;2022-12-18T09:27:04;40.55;;;16.17;;
66870;SDS011;53780;44.998;9.926;2022-12-18T09:30:07;43.20;;;16.10;;
66870;SDS011;53780;44.998;9.926;2022-12-18T09:33:12;39.03;;;15.30;;
66870;SDS011;53780;44.998;9.926;2022-12-18T09:36:17;41.38;;;16.42;;
66870;SDS011;53780;44.998;9.926;2022-12-18T09:39:21;41.42;;;16.35;;
66870;SDS011;53780;44.998;9.926;2022-12-18T09:42:25;44.08;;;16.63;;
66870;SDS011;53780;44.998;9.926;2022-12-18T09:45:49;45.63;;;16.83;;
66870;SDS011;53780;44.998;9.926;2022-12-18T09:48:59;44.47;;;16.90;;
66870;SDS011;53780;44.998;9.926;2022-12-18T09:55:30;41.70;;;16.95;;
66870;SDS011;53780;44.998;9.926;2022-12-18T09:58:40;44.15;;;17.30;;
66870;SDS011;53780;44.998;9.926;2022-12-18T10:01:48;45.67;;;17.00;;
66870;SDS011;53780;44.998;9.926;2022-12-18T10:05:02;43.33;;;16.95;;
66870;SDS011;53780;44.998;9.926;2022-12-18T10:08:12;41.58;;;17.17;;
66870;SDS011;53780;44.998;9.926;2022-12-18T10:28:30;40.30;;;15.70;;
66870;SDS011;53780;44.998;9.926;2022-12-18T10:31:36;44.03;;;15.60;;
66870;SDS011;53780;44.998;9.926;2022-12-18T10:34:39;44.43;;;16.20;;
66870;SDS011;53780;44.998;9.926;2022-12-18T10:41:24;42.70;;;16.63;;
66870;SDS011;53780;44.998;9.926;2022-12-18T10:44:30;39.70;;;16.48;;
66870;SDS011;53780;44.998;9.926;2022-12-18T10:47:34;42.75;;;16.08;;
66870;SDS011;53780;44.998;9.926;2022-12-18T10:50:38;41.43;;;16.83;;
66870;SDS011;53780;44.998;9.926;2022-12-18T10:53:44;40.67;;;15.15;;
66870;SDS011;53780;44.998;9.926;2022-12-18T11:00:26;35.85;;;14.82;;
66870;SDS011;53780;44.998;9.926;2022-12-18T11:03:45;40.17;;;15.48;;
66870;SDS011;53780;44.998;9.926;2022-12-18T11:07:02;41.43;;;16.07;;
66870;SDS011;53780;44.998;9.926;2022-12-18T11:10:15;42.80;;;16.30;;
66870;SDS011;53780;44.998;9.926;2022-12-18T11:13:22;44.50;;;16.73;;
66870;SDS011;53780;44.998;9.926;2022-12-18T11:16:28;38.72;;;16.27;;
66870;SDS011;53780;44.998;9.926;2022-12-18T11:19:38;41.22;;;15.93;;
66870;SDS011;53780;44.998;9.926;2022-12-18T11:22:44;38.97;;;15.20;;
66870;SDS011;53780;44.998;9.926;2022-12-18T11:26:03;42.70;;;17.80;;
66870;SDS011;53780;44.998;9.926;2022-12-18T11:29:10;38.97;;;16.25;;
66870;SDS011;53780;44.998;9.926;2022-12-18T11:32:29;43.25;;;17.15;;
66870;SDS011;53780;44.998;9.926;2022-12-18T11:38:53;47.10;;;18.83;;
66870;SDS011;53780;44.998;9.926;2022-12-18T11:42:00;55.72;;;24.63;;
66870;SDS011;53780;44.998;9.926;2022-12-18T12:01:49;45.63;;;18.42;;
66870;SDS011;53780;44.998;9.926;2022-12-18T12:05:05;48.80;;;17.48;;
66870;SDS011;53780;44.998;9.926;2022-12-18T12:08:26;48.28;;;19.30;;
66870;SDS011;53780;44.998;9.926;2022-12-18T12:19:04;51.25;;;18.73;;
66870;SDS011;53780;44.998;9.926;2022-12-18T12:39:23;52.95;;;20.60;;
66870;SDS011;53780;44.998;9.926;2022-12-18T12:42:38;48.67;;;18.58;;
66870;SDS011;53780;44.998;9.926;2022-12-18T12:46:06;45.83;;;17.03;;
66870;SDS011;53780;44.998;9.926;2022-12-18T12:49:15;49.33;;;19.30;;
66870;SDS011;53780;44.998;9.926;2022-12-18T12:55:40;44.00;;;17.90;;
66870;SDS011;53780;44.998;9.926;2022-12-18T13:01:52;45.53;;;16.83;;
66870;SDS011;53780;44.998;9.926;2022-12-18T13:08:58;45.63;;;18.10;;
66870;SDS011;53780;44.998;9.926;2022-12-18T13:12:04;46.92;;;18.13;;
66870;SDS011;53780;44.998;9.926;2022-12-18T13:18:40;45.47;;;17.17;;
66870;SDS011;53780;44.998;9.926;2022-12-18T13:21:53;49.13;;;16.75;;
66870;SDS011;53780;44.998;9.926;2022-12-18T13:24:59;46.88;;;17.95;;
66870;SDS011;53780;44.998;9.926;2022-12-18T13:28:48;48.83;;;17.85;;
66870;SDS011;53780;44.998;9.926;2022-12-18T13:34:43;44.87;;;17.80;;
66870;SDS011;53780;44.998;9.926;2022-12-18T13:37:52;46.22;;;16.88;;
66870;SDS011;53780;44.998;9.926;2022-12-18T13:40:58;47.72;;;17.83;;
66870;SDS011;53780;44.998;9.926;2022-12-18T13:44:11;45.58;;;17.10;;
66870;SDS011;53780;44.998;9.926;2022-12-18T13:47:34;47.53;;;17.80;;
66870;SDS011;53780;44.998;9.926;2022-12-18T13:50:41;45.83;;;17.53;;
66870;SDS011;53780;44.998;9.926;2022-12-18T13:56:50;48.22;;;17.85;;
66870;SDS011;53780;44.998;9.926;2022-12-18T13:59:55;46.28;;;16.83;;
66870;SDS011;53780;44.998;9.926;2022-12-18T14:03:00;45.53;;;17.02;;
66870;SDS011;53780;44.998;9.926;2022-12-18T14:06:05;48.63;;;17.83;;
66870;SDS011;53780;44.998;9.926;2022-12-18T14:09:15;44.67;;;16.52;;
66870;SDS011;53780;44.998;9.926;2022-12-18T14:12:24;44.88;;;17.05;;
66870;SDS011;53780;44.998;9.926;2022-12-18T14:15:49;44.70;;;15.52;;
66870;SDS011;53780;44.998;9.926;2022-12-18T14:18:55;47.03;;;16.20;;
66870;SDS011;53780;44.998;9.926;2022-12-18T14:22:01;44.00;;;16.73;;
66870;SDS011;53780;44.998;9.926;2022-12-18T14:25:26;41.78;;;15.85;;
66870;SDS011;53780;44.998;9.926;2022-12-18T14:28:42;45.45;;;16.60;;
66870;SDS011;53780;44.998;9.926;2022-12-18T14:35:28;42.97;;;16.25;;
66870;SDS011;53780;44.998;9.926;2022-12-18T14:38:33;38.17;;;14.63;;
66870;SDS011;53780;44.998;9.926;2022-12-18T14:41:38;36.25;;;13.73;;
66870;SDS011;53780;44.998;9.926;2022-12-18T14:44:42;38.72;;;14.35;;
66870;SDS011;53780;44.998;9.926;2022-12-18T14:47:46;41.53;;;14.80;;
66870;SDS011;53780;44.998;9.926;2022-12-18T14:50:57;38.00;;;15.40;;
66870;SDS011;53780;44.998;9.926;2022-12-18T14:54:05;45.97;;;17.97;;
66870;SDS011;53780;44.998;9.926;2022-12-18T14:57:22;57.67;;;22.65;;
66870;SDS011;53780;44.998;9.926;2022-12-18T15:00:41;48.40;;;17.05;;
66870;SDS011;53780;44.998;9.926;2022-12-18T15:03:46;42.05;;;16.45;;
66870;SDS011;53780;44.998;9.926;2022-12-18T15:06:50;39.90;;;14.88;;
66870;SDS011;53780;44.998;9.926;2022-12-18T15:10:12;41.30;;;15.03;;
66870;SDS011;53780;44.998;9.926;2022-12-18T15:13:22;44.45;;;16.30;;
66870;SDS011;53780;44.998;9.926;2022-12-18T15:16:28;38.30;;;14.88;;
66870;SDS011;53780;44.998;9.926;2022-12-18T15:19:41;48.05;;;20.23;;
66870;SDS011;53780;44.998;9.926;2022-12-18T15:22:47;46.17;;;17.52;;
66870;SDS011;53780;44.998;9.926;2022-12-18T15:25:55;45.27;;;16.50;;
66870;SDS011;53780;44.998;9.926;2022-12-18T15:29:00;43.10;;;16.63;;
66870;SDS011;53780;44.998;9.926;2022-12-18T15:32:10;42.15;;;15.77;;
66870;SDS011;53780;44.998;9.926;2022-12-18T15:35:23;44.50;;;16.42;;
66870;SDS011;53780;44.998;9.926;2022-12-18T15:38:28;41.70;;;15.63;;
66870;SDS011;53780;44.998;9.926;2022-12-18T15:41:33;42.77;;;16.50;;
66870;SDS011;53780;44.998;9.926;2022-12-18T15:44:38;41.70;;;16.13;;
66870;SDS011;53780;44.998;9.926;2022-12-18T15:47:42;45.03;;;17.13;;
66870;SDS011;53780;44.998;9.926;2022-12-18T15:50:47;44.53;;;16.73;;
66870;SDS011;53780;44.998;9.926;2022-12-18T15:53:52;42.95;;;15.75;;
66870;SDS011;53780;44.998;9.926;2022-12-18T15:56:58;42.63;;;15.80;;
66870;SDS011;53780;44.998;9.926;2022-12-18T16:00:21;45.95;;;17.02;;
66870;SDS011;53780;44.998;9.926;2022-12-18T16:03:25;44.08;;;16.73;;
66870;SDS011;53780;44.998;9.926;2022-12-18T16:06:29;43.05;;;16.63;;
66870;SDS011;53780;44.998;9.926;2022-12-18T16:09:33;42.22;;;16.42;;
66870;SDS011;53780;44.998;9.926;2022-12-18T16:12:37;41.17;;;16.00;;
66870;SDS011;53780;44.998;9.926;2022-12-18T16:15:45;38.95;;;14.63;;
66870;SDS011;53780;44.998;9.926;2022-12-18T16:18:49;36.53;;;15.52;;
66870;SDS011;53780;44.998;9.926;2022-12-18T16:21:54;37.63;;;15.48;;
66870;SDS011;53780;44.998;9.926;2022-12-18T16:25:00;39.75;;;16.00;;
66870;SDS011;53780;44.998;9.926;2022-12-18T16:28:04;37.60;;;14.50;;
66870;SDS011;53780;44.998;9.926;2022-12-18T16:31:07;37.80;;;15.00;;
66870;SDS011;53780;44.998;9.926;2022-12-18T16:34:22;39.35;;;15.43;;
66870;SDS011;53780;44.998;9.926;2022-12-18T16:37:33;41.08;;;15.82;;
66870;SDS011;53780;44.998;9.926;2022-12-18T16:40:37;41.20;;;16.75;;
66870;SDS011;53780;44.998;9.926;2022-12-18T16:44:02;46.90;;;18.03;;
66870;SDS011;53780;44.998;9.926;2022-12-18T16:47:07;74.53;;;25.38;;
66870;SDS011;53780;44.998;9.926;2022-12-18T16:50:10;65.07;;;27.25;;
66870;SDS011;53780;44.998;9.926;2022-12-18T16:53:15;56.33;;;23.85;;
66870;SDS011;53780;44.998;9.926;2022-12-18T16:56:18;47.20;;;17.50;;
66870;SDS011;53780;44.998;9.926;2022-12-18T16:59:23;44.07;;;17.03;;
66870;SDS011;53780;44.998;9.926;2022-12-18T17:02:29;49.70;;;17.10;;
66870;SDS011;53780;44.998;9.926;2022-12-18T17:05:33;48.72;;;17.63;;
66870;SDS011;53780;44.998;9.926;2022-12-18T17:08:36;46.80;;;17.73;;
66870;SDS011;53780;44.998;9.926;2022-12-18T17:11:40;43.47;;;16.85;;
66870;SDS011;53780;44.998;9.926;2022-12-18T17:14:45;48.10;;;17.53;;
66870;SDS011;53780;44.998;9.926;2022-12-18T17:17:49;45.20;;;17.25;;
66870;SDS011;53780;44.998;9.926;2022-12-18T17:20:57;48.10;;;17.35;;
66870;SDS011;53780;44.998;9.926;2022-12-18T17:24:05;43.45;;;16.42;;
66870;SDS011;53780;44.998;9.926;2022-12-18T17:27:09;47.20;;;17.17;;
66870;SDS011;53780;44.998;9.926;2022-12-18T17:30:13;46.70;;;17.17;;
66870;SDS011;53780;44.998;9.926;2022-12-18T17:33:17;46.38;;;16.27;;
66870;SDS011;53780;44.998;9.926;2022-12-18T17:36:22;45.88;;;16.63;;
66870;SDS011;53780;44.998;9.926;2022-12-18T17:39:27;43.95;;;17.00;;
66870;SDS011;53780;44.998;9.926;2022-12-18T17:42:33;45.92;;;16.77;;
66870;SDS011;53780;44.998;9.926;2022-12-18T17:45:37;45.80;;;17.07;;
66870;SDS011;53780;44.998;9.926;2022-12-18T17:48:41;46.13;;;16.10;;
66870;SDS011;53780;44.998;9.926;2022-12-18T17:51:48;45.75;;;17.20;;
66870;SDS011;53780;44.998;9.926;2022-12-18T17:54:52;48.25;;;17.10;;
66870;SDS011;53780;44.998;9.926;2022-12-18T17:57:56;46.85;;;17.75;;
66870;SDS011;53780;44.998;9.926;2022-12-18T18:01:00;49.23;;;17.83;;
66870;SDS011;53780;44.998;9.926;2022-12-18T18:04:04;49.00;;;17.95;;
66870;SDS011;53780;44.998;9.926;2022-12-18T18:07:09;47.60;;;18.05;;
66870;SDS011;53780;44.998;9.926;2022-12-18T18:10:14;47.17;;;17.67;;
66870;SDS011;53780;44.998;9.926;2022-12-18T18:13:23;49.88;;;18.75;;
66870;SDS011;53780;44.998;9.926;2022-12-18T18:16:47;46.77;;;18.57;;
66870;SDS011;53780;44.998;9.926;2022-12-18T18:19:53;51.47;;;18.55;;
66870;SDS011;53780;44.998;9.926;2022-12-18T18:22:58;47.38;;;17.73;;
66870;SDS011;53780;44.998;9.926;2022-12-18T18:26:06;54.30;;;19.83;;
66870;SDS011;53780;44.998;9.926;2022-12-18T18:29:13;48.88;;;18.90;;
66870;SDS011;53780;44.998;9.926;2022-12-18T18:32:18;50.07;;;20.10;;
66870;SDS011;53780;44.998;9.926;2022-12-18T18:35:23;47.65;;;18.33;;
66870;SDS011;53780;44.998;9.926;2022-12-18T18:38:26;50.65;;;19.30;;
66870;SDS011;53780;44.998;9.926;2022-12-18T18:41:31;54.50;;;21.70;;
66870;SDS011;53780;44.998;9.926;2022-12-18T18:44:35;51.03;;;20.25;;
66870;SDS011;53780;44.998;9.926;2022-12-18T18:47:39;51.90;;;19.80;;
66870;SDS011;53780;44.998;9.926;2022-12-18T18:50:43;50.80;;;19.35;;
66870;SDS011;53780;44.998;9.926;2022-12-18T18:53:49;54.20;;;20.13;;
66870;SDS011;53780;44.998;9.926;2022-12-18T18:56:54;57.63;;;20.20;;
66870;SDS011;53780;44.998;9.926;2022-12-18T18:59:58;47.45;;;18.65;;
66870;SDS011;53780;44.998;9.926;2022-12-18T19:03:02;66.33;;;21.87;;
66870;SDS011;53780;44.998;9.926;2022-12-18T19:06:06;59.45;;;20.85;;
66870;SDS011;53780;44.998;9.926;2022-12-18T19:09:11;52.17;;;20.77;;
66870;SDS011;53780;44.998;9.926;2022-12-18T19:12:15;55.63;;;21.38;;
66870;SDS011;53780;44.998;9.926;2022-12-18T19:15:38;56.30;;;20.23;;
66870;SDS011;53780;44.998;9.926;2022-12-18T19:18:42;51.63;;;20.17;;
66870;SDS011;53780;44.998;9.926;2022-12-18T19:21:46;51.03;;;20.30;;
66870;SDS011;53780;44.998;9.926;2022-12-18T19:24:50;55.10;;;22.00;;
66870;SDS011;53780;44.998;9.926;2022-12-18T19:27:54;54.05;;;20.50;;
66870;SDS011;53780;44.998;9.926;2022-12-18T19:30:58;59.40;;;22.50;;
66870;SDS011;53780;44.998;9.926;2022-12-18T19:34:04;66.30;;;23.23;;
66870;SDS011;53780;44.998;9.926;2022-12-18T19:37:09;46.30;;;17.60;;
66870;SDS011;53780;44.998;9.926;2022-12-18T19:40:13;45.58;;;15.93;;
66870;SDS011;53780;44.998;9.926;2022-12-18T19:43:17;47.80;;;18.48;;
66870;SDS011;53780;44.998;9.926;2022-12-18T19:46:22;51.58;;;21.42;;
66870;SDS011;53780;44.998;9.926;2022-12-18T19:49:29;44.60;;;16.33;;
66870;SDS011;53780;44.998;9.926;2022-12-18T19:52:36;39.35;;;14.10;;
66870;SDS011;53780;44.998;9.926;2022-12-18T19:55:41;40.50;;;15.52;;
66870;SDS011;53780;44.998;9.926;2022-12-18T19:58:45;40.45;;;15.10;;
66870;SDS011;53780;44.998;9.926;2022-12-18T20:01:49;44.45;;;17.08;;
66870;SDS011;53780;44.998;9.926;2022-12-18T20:04:53;43.40;;;17.47;;
66870;SDS011;53780;44.998;9.926;2022-12-18T20:07:58;61.38;;;22.25;;
66870;SDS011;53780;44.998;9.926;2022-12-18T20:11:08;53.00;;;18.95;;
66870;SDS011;53780;44.998;9.926;2022-12-18T20:14:16;42.78;;;15.57;;
66870;SDS011;53780;44.998;9.926;2022-12-18T20:17:21;42.70;;;16.48;;
66870;SDS011;53780;44.998;9.926;2022-12-18T20:20:26;43.40;;;15.70;;